sensor_id;sensor_type;location;lat;lon;timestamp;P1;durP1;ratioP1;P2;durP2;ratioP2
5060;SDS011;2549;52.128;21.068;2024-02-23T00:02:19;6.87;;;4.70;;
5060;SDS011;2549;52.128;21.068;2024-02-23T00:04:46;6.30;;;4.73;;
5060;SDS011;2549;52.128;21.068;2024-02-23T00:07:13;6.97;;;5.07;;
5060;SDS011;2549;52.128;21.068;2024-02-23T00:09:40;6.93;;;5.20;;
5060;SDS011;2549;52.128;21.068;2024-02-23T00:12:07;6.20;;;4.93;;
5060;SDS011;2549;52.128;21.068;2024-02-23T00:14:35;5.70;;;4.80;;
5060;SDS011;2549;52.128;21.068;2024-02-23T00:17:02;9.37;;;4.40;;
5060;SDS011;2549;52.128;21.068;2024-02-23T00:19:30;6.37;;;4.50;;
5060;SDS011;2549;52.128;21.068;2024-02-23T00:21:57;7.77;;;5.80;;
5060;SDS011;2549;52.128;21.068;2024-02-23T00:24:25;8.17;;;5.03;;
5060;SDS011;2549;52.128;21.068;2024-02-23T00:26:53;7.10;;;4.83;;
5060;SDS011;2549;52.128;21.068;2024-02-23T00:29:20;6.57;;;5.10;;
5060;SDS011;2549;52.128;21.068;2024-02-23T00:31:48;5.50;;;4.67;;
5060;SDS011;2549;52.128;21.068;2024-02-23T00:34:15;6.70;;;4.80;;
5060;SDS011;2549;52.128;21.068;2024-02-23T00:36:43;6.40;;;4.73;;
5060;SDS011;2549;52.128;21.068;2024-02-23T00:39:11;5.00;;;4.40;;
5060;SDS011;2549;52.128;21.068;2024-02-23T00:41:38;5.00;;;4.50;;
5060;SDS011;2549;52.128;21.068;2024-02-23T00:44:05;5.03;;;4.13;;
5060;SDS011;2549;52.128;21.068;2024-02-23T00:46:32;6.80;;;4.50;;
5060;SDS011;2549;52.128;21.068;2024-02-23T00:49:00;4.87;;;4.37;;
5060;SDS011;2549;52.128;21.068;2024-02-23T00:51:27;4.63;;;4.03;;
5060;SDS011;2549;52.128;21.068;2024-02-23T00:53:54;4.20;;;3.87;;
5060;SDS011;2549;52.128;21.068;2024-02-23T00:56:21;4.47;;;4.03;;
5060;SDS011;2549;52.128;21.068;2024-02-23T00:58:58;10.90;;;4.60;;
5060;SDS011;2549;52.128;21.068;2024-02-23T01:01:25;6.70;;;5.00;;
5060;SDS011;2549;52.128;21.068;2024-02-23T01:03:53;9.30;;;4.67;;
5060;SDS011;2549;52.128;21.068;2024-02-23T01:06:20;4.30;;;3.63;;
5060;SDS011;2549;52.128;21.068;2024-02-23T01:08:47;4.63;;;4.23;;
5060;SDS011;2549;52.128;21.068;2024-02-23T01:11:14;6.07;;;4.43;;
5060;SDS011;2549;52.128;21.068;2024-02-23T01:13:41;7.80;;;4.40;;
5060;SDS011;2549;52.128;21.068;2024-02-23T01:16:08;6.03;;;4.07;;
5060;SDS011;2549;52.128;21.068;2024-02-23T01:18:35;4.20;;;3.80;;
5060;SDS011;2549;52.128;21.068;2024-02-23T01:21:02;4.67;;;4.27;;
5060;SDS011;2549;52.128;21.068;2024-02-23T01:23:29;4.40;;;4.00;;
5060;SDS011;2549;52.128;21.068;2024-02-23T01:25:56;4.07;;;3.77;;
5060;SDS011;2549;52.128;21.068;2024-02-23T01:28:25;4.40;;;4.00;;
5060;SDS011;2549;52.128;21.068;2024-02-23T01:30:52;4.43;;;4.07;;
5060;SDS011;2549;52.128;21.068;2024-02-23T01:33:19;4.80;;;4.27;;
5060;SDS011;2549;52.128;21.068;2024-02-23T01:35:46;6.30;;;4.50;;
5060;SDS011;2549;52.128;21.068;2024-02-23T01:38:13;5.40;;;3.97;;
5060;SDS011;2549;52.128;21.068;2024-02-23T01:40:45;4.10;;;3.73;;
5060;SDS011;2549;52.128;21.068;2024-02-23T01:43:13;4.70;;;3.67;;
5060;SDS011;2549;52.128;21.068;2024-02-23T01:45:40;7.70;;;4.40;;
5060;SDS011;2549;52.128;21.068;2024-02-23T01:48:08;4.70;;;4.30;;
5060;SDS011;2549;52.128;21.068;2024-02-23T01:50:35;4.37;;;3.93;;
5060;SDS011;2549;52.128;21.068;2024-02-23T01:53:03;15.77;;;3.60;;
5060;SDS011;2549;52.128;21.068;2024-02-23T01:55:31;4.30;;;3.80;;
5060;SDS011;2549;52.128;21.068;2024-02-23T01:58:02;4.87;;;4.30;;
5060;SDS011;2549;52.128;21.068;2024-02-23T02:00:34;4.90;;;4.00;;
5060;SDS011;2549;52.128;21.068;2024-02-23T02:03:04;4.90;;;3.83;;
5060;SDS011;2549;52.128;21.068;2024-02-23T02:05:37;4.20;;;3.73;;
5060;SDS011;2549;52.128;21.068;2024-02-23T02:08:04;3.60;;;3.30;;
5060;SDS011;2549;52.128;21.068;2024-02-23T02:10:32;4.57;;;3.40;;
5060;SDS011;2549;52.128;21.068;2024-02-23T02:13:02;6.43;;;4.00;;
5060;SDS011;2549;52.128;21.068;2024-02-23T02:15:33;6.73;;;3.67;;
5060;SDS011;2549;52.128;21.068;2024-02-23T02:18:00;5.23;;;3.57;;
5060;SDS011;2549;52.128;21.068;2024-02-23T02:20:27;3.90;;;3.03;;
5060;SDS011;2549;52.128;21.068;2024-02-23T02:22:58;12.90;;;3.60;;
5060;SDS011;2549;52.128;21.068;2024-02-23T02:25:26;9.70;;;3.40;;
5060;SDS011;2549;52.128;21.068;2024-02-23T02:27:52;3.43;;;3.23;;
5060;SDS011;2549;52.128;21.068;2024-02-23T02:30:19;3.70;;;3.43;;
5060;SDS011;2549;52.128;21.068;2024-02-23T02:32:46;4.23;;;3.20;;
5060;SDS011;2549;52.128;21.068;2024-02-23T02:35:13;3.00;;;2.80;;
5060;SDS011;2549;52.128;21.068;2024-02-23T02:37:40;4.33;;;3.40;;
5060;SDS011;2549;52.128;21.068;2024-02-23T02:40:08;2.67;;;2.47;;
5060;SDS011;2549;52.128;21.068;2024-02-23T02:42:35;6.30;;;3.50;;
5060;SDS011;2549;52.128;21.068;2024-02-23T02:45:02;2.50;;;2.30;;
5060;SDS011;2549;52.128;21.068;2024-02-23T02:47:29;3.30;;;3.10;;
5060;SDS011;2549;52.128;21.068;2024-02-23T02:49:56;4.30;;;3.03;;
5060;SDS011;2549;52.128;21.068;2024-02-23T02:52:23;3.13;;;2.90;;
5060;SDS011;2549;52.128;21.068;2024-02-23T02:54:50;3.57;;;3.27;;
5060;SDS011;2549;52.128;21.068;2024-02-23T02:57:17;3.33;;;3.00;;
5060;SDS011;2549;52.128;21.068;2024-02-23T02:59:44;2.33;;;2.23;;
5060;SDS011;2549;52.128;21.068;2024-02-23T03:02:12;2.43;;;2.30;;
5060;SDS011;2549;52.128;21.068;2024-02-23T03:04:46;3.00;;;2.70;;
5060;SDS011;2549;52.128;21.068;2024-02-23T03:07:14;2.93;;;2.70;;
5060;SDS011;2549;52.128;21.068;2024-02-23T03:09:42;2.87;;;2.67;;
5060;SDS011;2549;52.128;21.068;2024-02-23T03:12:10;4.70;;;2.80;;
5060;SDS011;2549;52.128;21.068;2024-02-23T03:14:37;2.80;;;2.43;;
5060;SDS011;2549;52.128;21.068;2024-02-23T03:17:07;4.30;;;2.87;;
5060;SDS011;2549;52.128;21.068;2024-02-23T03:19:36;2.57;;;2.40;;
5060;SDS011;2549;52.128;21.068;2024-02-23T03:22:04;2.53;;;2.33;;
5060;SDS011;2549;52.128;21.068;2024-02-23T03:24:31;2.63;;;2.43;;
5060;SDS011;2549;52.128;21.068;2024-02-23T03:26:58;5.60;;;2.90;;
5060;SDS011;2549;52.128;21.068;2024-02-23T03:29:25;9.20;;;2.80;;
5060;SDS011;2549;52.128;21.068;2024-02-23T03:31:56;5.60;;;2.80;;
5060;SDS011;2549;52.128;21.068;2024-02-23T03:34:23;2.47;;;2.30;;
5060;SDS011;2549;52.128;21.068;2024-02-23T03:36:50;2.73;;;2.53;;
5060;SDS011;2549;52.128;21.068;2024-02-23T03:39:17;2.93;;;2.60;;
5060;SDS011;2549;52.128;21.068;2024-02-23T03:41:43;2.77;;;2.60;;
5060;SDS011;2549;52.128;21.068;2024-02-23T03:44:10;3.53;;;2.53;;
5060;SDS011;2549;52.128;21.068;2024-02-23T03:46:37;2.50;;;2.40;;
5060;SDS011;2549;52.128;21.068;2024-02-23T03:49:04;3.30;;;3.10;;
5060;SDS011;2549;52.128;21.068;2024-02-23T03:51:31;5.70;;;2.37;;
5060;SDS011;2549;52.128;21.068;2024-02-23T03:54:01;4.50;;;2.20;;
5060;SDS011;2549;52.128;21.068;2024-02-23T03:56:28;2.43;;;2.27;;
5060;SDS011;2549;52.128;21.068;2024-02-23T03:58:55;3.77;;;3.27;;
5060;SDS011;2549;52.128;21.068;2024-02-23T04:01:22;2.50;;;2.40;;
5060;SDS011;2549;52.128;21.068;2024-02-23T04:03:49;2.10;;;2.00;;
5060;SDS011;2549;52.128;21.068;2024-02-23T04:06:16;3.03;;;2.70;;
5060;SDS011;2549;52.128;21.068;2024-02-23T04:08:43;3.90;;;2.13;;
5060;SDS011;2549;52.128;21.068;2024-02-23T04:11:13;3.10;;;2.80;;
5060;SDS011;2549;52.128;21.068;2024-02-23T04:13:40;3.00;;;2.80;;
5060;SDS011;2549;52.128;21.068;2024-02-23T04:16:07;3.27;;;2.33;;
5060;SDS011;2549;52.128;21.068;2024-02-23T04:18:34;2.50;;;2.30;;
5060;SDS011;2549;52.128;21.068;2024-02-23T04:21:01;3.20;;;2.63;;
5060;SDS011;2549;52.128;21.068;2024-02-23T04:23:27;3.10;;;2.80;;
5060;SDS011;2549;52.128;21.068;2024-02-23T04:25:54;2.97;;;2.70;;
5060;SDS011;2549;52.128;21.068;2024-02-23T04:28:21;2.87;;;2.67;;
5060;SDS011;2549;52.128;21.068;2024-02-23T04:30:48;2.70;;;2.50;;
5060;SDS011;2549;52.128;21.068;2024-02-23T04:33:15;4.30;;;2.53;;
5060;SDS011;2549;52.128;21.068;2024-02-23T04:35:43;2.53;;;2.33;;
5060;SDS011;2549;52.128;21.068;2024-02-23T04:38:11;3.03;;;2.83;;
5060;SDS011;2549;52.128;21.068;2024-02-23T04:40:37;2.57;;;2.37;;
5060;SDS011;2549;52.128;21.068;2024-02-23T04:43:04;2.50;;;2.40;;
5060;SDS011;2549;52.128;21.068;2024-02-23T04:45:31;4.37;;;2.57;;
5060;SDS011;2549;52.128;21.068;2024-02-23T04:47:58;2.60;;;2.40;;
5060;SDS011;2549;52.128;21.068;2024-02-23T04:50:25;3.10;;;2.23;;
5060;SDS011;2549;52.128;21.068;2024-02-23T04:52:52;2.60;;;2.40;;
5060;SDS011;2549;52.128;21.068;2024-02-23T04:55:19;4.17;;;2.10;;
5060;SDS011;2549;52.128;21.068;2024-02-23T04:57:45;2.50;;;2.30;;
5060;SDS011;2549;52.128;21.068;2024-02-23T05:00:12;2.77;;;2.53;;
5060;SDS011;2549;52.128;21.068;2024-02-23T05:02:39;2.10;;;2.00;;
5060;SDS011;2549;52.128;21.068;2024-02-23T05:05:07;3.73;;;2.47;;
5060;SDS011;2549;52.128;21.068;2024-02-23T05:07:34;3.90;;;2.57;;
5060;SDS011;2549;52.128;21.068;2024-02-23T05:10:01;6.90;;;3.17;;
5060;SDS011;2549;52.128;21.068;2024-02-23T05:12:28;2.63;;;2.43;;
5060;SDS011;2549;52.128;21.068;2024-02-23T05:14:55;2.50;;;2.03;;
5060;SDS011;2549;52.128;21.068;2024-02-23T05:17:22;2.40;;;2.20;;
5060;SDS011;2549;52.128;21.068;2024-02-23T05:19:49;2.60;;;2.40;;
5060;SDS011;2549;52.128;21.068;2024-02-23T05:22:17;2.60;;;2.10;;
5060;SDS011;2549;52.128;21.068;2024-02-23T05:24:45;2.10;;;1.90;;
5060;SDS011;2549;52.128;21.068;2024-02-23T05:27:12;2.30;;;2.10;;
5060;SDS011;2549;52.128;21.068;2024-02-23T05:29:39;2.13;;;1.93;;
5060;SDS011;2549;52.128;21.068;2024-02-23T05:32:06;2.30;;;2.10;;
5060;SDS011;2549;52.128;21.068;2024-02-23T05:34:33;2.60;;;2.40;;
5060;SDS011;2549;52.128;21.068;2024-02-23T05:37:02;1.93;;;1.83;;
5060;SDS011;2549;52.128;21.068;2024-02-23T05:39:28;3.50;;;2.37;;
5060;SDS011;2549;52.128;21.068;2024-02-23T05:41:55;3.40;;;2.13;;
5060;SDS011;2549;52.128;21.068;2024-02-23T05:44:23;2.30;;;2.07;;
5060;SDS011;2549;52.128;21.068;2024-02-23T05:46:50;2.07;;;2.00;;
5060;SDS011;2549;52.128;21.068;2024-02-23T05:49:17;2.00;;;1.80;;
5060;SDS011;2549;52.128;21.068;2024-02-23T05:51:44;2.37;;;2.20;;
5060;SDS011;2549;52.128;21.068;2024-02-23T05:54:11;2.50;;;2.33;;
5060;SDS011;2549;52.128;21.068;2024-02-23T05:56:38;2.17;;;1.93;;
5060;SDS011;2549;52.128;21.068;2024-02-23T05:59:05;2.53;;;2.33;;
5060;SDS011;2549;52.128;21.068;2024-02-23T06:01:33;2.47;;;2.27;;
5060;SDS011;2549;52.128;21.068;2024-02-23T06:03:59;4.20;;;2.33;;
5060;SDS011;2549;52.128;21.068;2024-02-23T06:06:26;3.37;;;2.43;;
5060;SDS011;2549;52.128;21.068;2024-02-23T06:08:53;1.90;;;1.67;;
5060;SDS011;2549;52.128;21.068;2024-02-23T06:11:20;1.80;;;1.70;;
5060;SDS011;2549;52.128;21.068;2024-02-23T06:13:47;1.73;;;1.63;;
5060;SDS011;2549;52.128;21.068;2024-02-23T06:16:14;2.30;;;2.10;;
5060;SDS011;2549;52.128;21.068;2024-02-23T06:18:42;1.90;;;1.70;;
5060;SDS011;2549;52.128;21.068;2024-02-23T06:21:13;2.40;;;1.80;;
5060;SDS011;2549;52.128;21.068;2024-02-23T06:23:41;1.90;;;1.80;;
5060;SDS011;2549;52.128;21.068;2024-02-23T06:26:08;1.90;;;1.80;;
5060;SDS011;2549;52.128;21.068;2024-02-23T06:28:35;1.73;;;1.63;;
5060;SDS011;2549;52.128;21.068;2024-02-23T06:31:03;4.10;;;1.80;;
5060;SDS011;2549;52.128;21.068;2024-02-23T06:33:31;4.23;;;2.37;;
5060;SDS011;2549;52.128;21.068;2024-02-23T06:35:58;2.50;;;2.33;;
5060;SDS011;2549;52.128;21.068;2024-02-23T06:38:25;1.73;;;1.63;;
5060;SDS011;2549;52.128;21.068;2024-02-23T06:40:53;1.70;;;1.60;;
5060;SDS011;2549;52.128;21.068;2024-02-23T06:43:21;1.75;;;1.65;;
5060;SDS011;2549;52.128;21.068;2024-02-23T06:45:49;2.50;;;1.90;;
5060;SDS011;2549;52.128;21.068;2024-02-23T06:48:16;4.53;;;2.00;;
5060;SDS011;2549;52.128;21.068;2024-02-23T06:50:43;2.07;;;1.93;;
5060;SDS011;2549;52.128;21.068;2024-02-23T06:53:10;3.07;;;2.33;;
5060;SDS011;2549;52.128;21.068;2024-02-23T06:55:37;1.80;;;1.70;;
5060;SDS011;2549;52.128;21.068;2024-02-23T06:58:04;3.03;;;2.30;;
5060;SDS011;2549;52.128;21.068;2024-02-23T07:00:32;2.07;;;1.97;;
5060;SDS011;2549;52.128;21.068;2024-02-23T07:02:59;2.10;;;2.00;;
5060;SDS011;2549;52.128;21.068;2024-02-23T07:05:30;2.07;;;1.97;;
5060;SDS011;2549;52.128;21.068;2024-02-23T07:07:58;2.17;;;1.93;;
5060;SDS011;2549;52.128;21.068;2024-02-23T07:10:25;3.03;;;2.28;;
5060;SDS011;2549;52.128;21.068;2024-02-23T07:12:52;3.33;;;1.87;;
5060;SDS011;2549;52.128;21.068;2024-02-23T07:15:20;1.40;;;1.33;;
5060;SDS011;2549;52.128;21.068;2024-02-23T07:17:47;3.80;;;2.23;;
5060;SDS011;2549;52.128;21.068;2024-02-23T07:20:15;6.20;;;1.60;;
5060;SDS011;2549;52.128;21.068;2024-02-23T07:22:45;2.30;;;1.80;;
5060;SDS011;2549;52.128;21.068;2024-02-23T07:25:18;1.80;;;1.70;;
5060;SDS011;2549;52.128;21.068;2024-02-23T07:27:47;4.50;;;2.00;;
5060;SDS011;2549;52.128;21.068;2024-02-23T07:30:15;1.60;;;1.50;;
5060;SDS011;2549;52.128;21.068;2024-02-23T07:32:43;2.20;;;2.00;;
5060;SDS011;2549;52.128;21.068;2024-02-23T07:35:15;2.90;;;2.50;;
5060;SDS011;2549;52.128;21.068;2024-02-23T07:37:42;2.40;;;2.10;;
5060;SDS011;2549;52.128;21.068;2024-02-23T07:40:09;2.30;;;2.10;;
5060;SDS011;2549;52.128;21.068;2024-02-23T07:42:36;1.80;;;1.70;;
5060;SDS011;2549;52.128;21.068;2024-02-23T07:45:03;6.60;;;2.03;;
5060;SDS011;2549;52.128;21.068;2024-02-23T07:47:31;3.80;;;2.03;;
5060;SDS011;2549;52.128;21.068;2024-02-23T07:49:58;1.97;;;1.87;;
5060;SDS011;2549;52.128;21.068;2024-02-23T07:52:25;1.90;;;1.80;;
5060;SDS011;2549;52.128;21.068;2024-02-23T07:54:52;1.83;;;1.73;;
5060;SDS011;2549;52.128;21.068;2024-02-23T07:57:19;1.70;;;1.60;;
5060;SDS011;2549;52.128;21.068;2024-02-23T07:59:47;2.87;;;2.03;;
5060;SDS011;2549;52.128;21.068;2024-02-23T08:02:14;2.70;;;2.10;;
5060;SDS011;2549;52.128;21.068;2024-02-23T08:04:42;2.33;;;2.20;;
5060;SDS011;2549;52.128;21.068;2024-02-23T08:07:09;2.13;;;2.03;;
5060;SDS011;2549;52.128;21.068;2024-02-23T08:09:36;2.92;;;2.60;;
5060;SDS011;2549;52.128;21.068;2024-02-23T08:12:03;2.00;;;1.90;;
5060;SDS011;2549;52.128;21.068;2024-02-23T08:14:31;2.47;;;2.37;;
5060;SDS011;2549;52.128;21.068;2024-02-23T08:16:59;2.93;;;2.07;;
5060;SDS011;2549;52.128;21.068;2024-02-23T08:19:28;2.20;;;2.10;;
5060;SDS011;2549;52.128;21.068;2024-02-23T08:21:55;3.50;;;3.20;;
5060;SDS011;2549;52.128;21.068;2024-02-23T08:24:23;2.23;;;2.10;;
5060;SDS011;2549;52.128;21.068;2024-02-23T08:26:52;3.53;;;2.60;;
5060;SDS011;2549;52.128;21.068;2024-02-23T08:29:20;2.13;;;2.03;;
5060;SDS011;2549;52.128;21.068;2024-02-23T08:31:47;6.83;;;2.47;;
5060;SDS011;2549;52.128;21.068;2024-02-23T08:34:15;2.73;;;2.53;;
5060;SDS011;2549;52.128;21.068;2024-02-23T08:36:44;4.23;;;2.17;;
5060;SDS011;2549;52.128;21.068;2024-02-23T08:39:10;3.00;;;2.50;;
5060;SDS011;2549;52.128;21.068;2024-02-23T08:41:37;6.27;;;2.60;;
5060;SDS011;2549;52.128;21.068;2024-02-23T08:44:05;3.10;;;2.20;;
5060;SDS011;2549;52.128;21.068;2024-02-23T08:46:32;2.43;;;2.23;;
5060;SDS011;2549;52.128;21.068;2024-02-23T08:48:59;2.43;;;2.23;;
5060;SDS011;2549;52.128;21.068;2024-02-23T08:51:26;2.50;;;2.30;;
5060;SDS011;2549;52.128;21.068;2024-02-23T08:53:53;2.40;;;2.30;;
5060;SDS011;2549;52.128;21.068;2024-02-23T08:56:25;2.53;;;2.33;;
5060;SDS011;2549;52.128;21.068;2024-02-23T08:58:52;2.50;;;2.20;;
5060;SDS011;2549;52.128;21.068;2024-02-23T09:01:19;2.13;;;2.03;;
5060;SDS011;2549;52.128;21.068;2024-02-23T09:03:46;2.70;;;2.50;;
5060;SDS011;2549;52.128;21.068;2024-02-23T09:06:13;2.87;;;2.67;;
5060;SDS011;2549;52.128;21.068;2024-02-23T09:08:40;3.23;;;2.93;;
5060;SDS011;2549;52.128;21.068;2024-02-23T09:11:07;3.13;;;2.83;;
5060;SDS011;2549;52.128;21.068;2024-02-23T09:13:34;4.87;;;3.00;;
5060;SDS011;2549;52.128;21.068;2024-02-23T09:16:01;3.13;;;2.83;;
5060;SDS011;2549;52.128;21.068;2024-02-23T09:18:29;3.93;;;2.50;;
5060;SDS011;2549;52.128;21.068;2024-02-23T09:20:56;3.40;;;3.20;;
5060;SDS011;2549;52.128;21.068;2024-02-23T09:23:23;4.43;;;3.03;;
5060;SDS011;2549;52.128;21.068;2024-02-23T09:25:50;3.03;;;2.77;;
5060;SDS011;2549;52.128;21.068;2024-02-23T09:28:17;3.80;;;2.40;;
5060;SDS011;2549;52.128;21.068;2024-02-23T09:30:44;3.03;;;2.83;;
5060;SDS011;2549;52.128;21.068;2024-02-23T09:33:11;3.20;;;2.90;;
5060;SDS011;2549;52.128;21.068;2024-02-23T09:35:38;4.10;;;2.70;;
5060;SDS011;2549;52.128;21.068;2024-02-23T09:38:06;2.90;;;2.70;;
5060;SDS011;2549;52.128;21.068;2024-02-23T09:40:33;3.30;;;3.10;;
5060;SDS011;2549;52.128;21.068;2024-02-23T09:42:59;4.37;;;2.97;;
5060;SDS011;2549;52.128;21.068;2024-02-23T09:45:27;4.00;;;3.27;;
5060;SDS011;2549;52.128;21.068;2024-02-23T09:47:56;4.07;;;3.20;;
5060;SDS011;2549;52.128;21.068;2024-02-23T09:50:24;5.47;;;3.70;;
5060;SDS011;2549;52.128;21.068;2024-02-23T09:52:51;5.57;;;3.10;;
5060;SDS011;2549;52.128;21.068;2024-02-23T09:55:21;5.37;;;3.03;;
5060;SDS011;2549;52.128;21.068;2024-02-23T09:57:49;3.80;;;3.50;;
5060;SDS011;2549;52.128;21.068;2024-02-23T10:00:21;3.07;;;2.87;;
5060;SDS011;2549;52.128;21.068;2024-02-23T10:02:50;3.97;;;2.93;;
5060;SDS011;2549;52.128;21.068;2024-02-23T10:05:17;4.80;;;3.17;;
5060;SDS011;2549;52.128;21.068;2024-02-23T10:07:45;5.20;;;2.90;;
5060;SDS011;2549;52.128;21.068;2024-02-23T10:10:13;3.77;;;3.47;;
5060;SDS011;2549;52.128;21.068;2024-02-23T10:12:40;3.30;;;3.00;;
5060;SDS011;2549;52.128;21.068;2024-02-23T10:15:07;3.23;;;2.93;;
5060;SDS011;2549;52.128;21.068;2024-02-23T10:17:34;2.70;;;2.60;;
5060;SDS011;2549;52.128;21.068;2024-02-23T10:20:02;3.53;;;3.23;;
5060;SDS011;2549;52.128;21.068;2024-02-23T10:22:32;4.90;;;3.20;;
5060;SDS011;2549;52.128;21.068;2024-02-23T10:24:59;4.47;;;3.60;;
5060;SDS011;2549;52.128;21.068;2024-02-23T10:27:26;6.57;;;3.60;;
5060;SDS011;2549;52.128;21.068;2024-02-23T10:29:54;3.20;;;3.00;;
5060;SDS011;2549;52.128;21.068;2024-02-23T10:32:21;3.30;;;2.80;;
5060;SDS011;2549;52.128;21.068;2024-02-23T10:34:50;3.37;;;3.10;;
5060;SDS011;2549;52.128;21.068;2024-02-23T10:37:22;5.83;;;3.10;;
5060;SDS011;2549;52.128;21.068;2024-02-23T10:39:50;3.60;;;3.10;;
5060;SDS011;2549;52.128;21.068;2024-02-23T10:42:21;4.27;;;3.87;;
5060;SDS011;2549;52.128;21.068;2024-02-23T10:44:51;4.13;;;3.73;;
5060;SDS011;2549;52.128;21.068;2024-02-23T10:47:21;5.93;;;3.50;;
5060;SDS011;2549;52.128;21.068;2024-02-23T10:49:48;3.50;;;3.20;;
5060;SDS011;2549;52.128;21.068;2024-02-23T10:52:15;3.97;;;3.57;;
5060;SDS011;2549;52.128;21.068;2024-02-23T10:54:47;4.50;;;3.23;;
5060;SDS011;2549;52.128;21.068;2024-02-23T10:57:15;7.43;;;3.20;;
5060;SDS011;2549;52.128;21.068;2024-02-23T10:59:48;5.27;;;3.73;;
5060;SDS011;2549;52.128;21.068;2024-02-23T11:02:16;8.37;;;4.40;;
5060;SDS011;2549;52.128;21.068;2024-02-23T11:04:47;4.37;;;3.47;;
5060;SDS011;2549;52.128;21.068;2024-02-23T11:07:20;3.67;;;3.47;;
5060;SDS011;2549;52.128;21.068;2024-02-23T11:09:52;4.23;;;3.40;;
5060;SDS011;2549;52.128;21.068;2024-02-23T11:12:23;4.00;;;3.60;;
5060;SDS011;2549;52.128;21.068;2024-02-23T11:14:51;7.60;;;3.50;;
5060;SDS011;2549;52.128;21.068;2024-02-23T11:17:22;5.37;;;3.90;;
5060;SDS011;2549;52.128;21.068;2024-02-23T11:19:53;3.43;;;3.13;;
5060;SDS011;2549;52.128;21.068;2024-02-23T11:25:04;8.83;;;4.00;;
5060;SDS011;2549;52.128;21.068;2024-02-23T11:27:33;5.23;;;4.10;;
5060;SDS011;2549;52.128;21.068;2024-02-23T11:30:03;4.13;;;3.50;;
5060;SDS011;2549;52.128;21.068;2024-02-23T11:32:38;5.20;;;4.03;;
5060;SDS011;2549;52.128;21.068;2024-02-23T11:35:07;5.00;;;4.00;;
5060;SDS011;2549;52.128;21.068;2024-02-23T11:37:52;4.70;;;3.27;;
5060;SDS011;2549;52.128;21.068;2024-02-23T11:40:26;7.23;;;4.00;;
5060;SDS011;2549;52.128;21.068;2024-02-23T11:42:57;3.43;;;3.13;;
5060;SDS011;2549;52.128;21.068;2024-02-23T11:45:28;6.67;;;3.60;;
5060;SDS011;2549;52.128;21.068;2024-02-23T11:47:57;3.93;;;3.30;;
5060;SDS011;2549;52.128;21.068;2024-02-23T11:50:26;4.83;;;3.83;;
5060;SDS011;2549;52.128;21.068;2024-02-23T11:52:53;5.80;;;3.70;;
5060;SDS011;2549;52.128;21.068;2024-02-23T11:55:20;4.60;;;4.20;;
5060;SDS011;2549;52.128;21.068;2024-02-23T11:57:49;10.07;;;4.23;;
5060;SDS011;2549;52.128;21.068;2024-02-23T12:00:30;5.40;;;3.90;;
5060;SDS011;2549;52.128;21.068;2024-02-23T12:02:57;11.03;;;3.63;;
5060;SDS011;2549;52.128;21.068;2024-02-23T12:05:24;4.97;;;4.47;;
5060;SDS011;2549;52.128;21.068;2024-02-23T12:07:51;4.93;;;4.10;;
5060;SDS011;2549;52.128;21.068;2024-02-23T12:10:19;3.90;;;3.60;;
5060;SDS011;2549;52.128;21.068;2024-02-23T12:12:47;4.87;;;3.93;;
5060;SDS011;2549;52.128;21.068;2024-02-23T12:15:13;5.30;;;4.60;;
5060;SDS011;2549;52.128;21.068;2024-02-23T12:17:47;4.40;;;3.87;;
5060;SDS011;2549;52.128;21.068;2024-02-23T12:20:14;5.60;;;4.20;;
5060;SDS011;2549;52.128;21.068;2024-02-23T12:22:42;3.97;;;3.60;;
5060;SDS011;2549;52.128;21.068;2024-02-23T12:25:11;5.13;;;3.63;;
5060;SDS011;2549;52.128;21.068;2024-02-23T12:27:39;4.60;;;4.10;;
5060;SDS011;2549;52.128;21.068;2024-02-23T12:30:13;5.27;;;3.90;;
5060;SDS011;2549;52.128;21.068;2024-02-23T12:32:41;6.93;;;4.50;;
5060;SDS011;2549;52.128;21.068;2024-02-23T12:35:10;7.87;;;5.13;;
5060;SDS011;2549;52.128;21.068;2024-02-23T12:37:41;5.60;;;4.30;;
5060;SDS011;2549;52.128;21.068;2024-02-23T12:40:10;5.50;;;4.30;;
5060;SDS011;2549;52.128;21.068;2024-02-23T12:42:39;5.50;;;4.27;;
5060;SDS011;2549;52.128;21.068;2024-02-23T12:45:06;8.03;;;4.70;;
5060;SDS011;2549;52.128;21.068;2024-02-23T12:47:33;4.13;;;3.73;;
5060;SDS011;2549;52.128;21.068;2024-02-23T12:50:00;5.43;;;4.57;;
5060;SDS011;2549;52.128;21.068;2024-02-23T12:52:27;7.00;;;4.70;;
5060;SDS011;2549;52.128;21.068;2024-02-23T12:54:54;5.03;;;4.53;;
5060;SDS011;2549;52.128;21.068;2024-02-23T12:57:21;6.40;;;4.67;;
5060;SDS011;2549;52.128;21.068;2024-02-23T12:59:48;5.03;;;4.40;;
5060;SDS011;2549;52.128;21.068;2024-02-23T13:02:15;4.50;;;3.70;;
5060;SDS011;2549;52.128;21.068;2024-02-23T13:04:42;7.03;;;4.57;;
5060;SDS011;2549;52.128;21.068;2024-02-23T13:07:15;7.30;;;4.60;;
5060;SDS011;2549;52.128;21.068;2024-02-23T13:09:43;7.20;;;4.77;;
5060;SDS011;2549;52.128;21.068;2024-02-23T13:12:10;6.63;;;4.87;;
5060;SDS011;2549;52.128;21.068;2024-02-23T13:14:38;11.13;;;5.13;;
5060;SDS011;2549;52.128;21.068;2024-02-23T13:17:05;5.17;;;4.67;;
5060;SDS011;2549;52.128;21.068;2024-02-23T13:19:32;5.40;;;4.40;;
5060;SDS011;2549;52.128;21.068;2024-02-23T13:22:02;9.03;;;5.20;;
5060;SDS011;2549;52.128;21.068;2024-02-23T13:24:28;8.73;;;5.60;;
5060;SDS011;2549;52.128;21.068;2024-02-23T13:26:55;4.90;;;4.40;;
5060;SDS011;2549;52.128;21.068;2024-02-23T13:29:22;6.90;;;5.53;;
5060;SDS011;2549;52.128;21.068;2024-02-23T13:31:49;5.27;;;4.77;;
5060;SDS011;2549;52.128;21.068;2024-02-23T13:34:16;5.30;;;4.67;;
5060;SDS011;2549;52.128;21.068;2024-02-23T13:36:44;5.00;;;4.50;;
5060;SDS011;2549;52.128;21.068;2024-02-23T13:39:11;4.90;;;4.33;;
5060;SDS011;2549;52.128;21.068;2024-02-23T13:41:38;10.50;;;4.60;;
5060;SDS011;2549;52.128;21.068;2024-02-23T13:44:05;5.30;;;4.80;;
5060;SDS011;2549;52.128;21.068;2024-02-23T13:46:35;4.33;;;4.03;;
5060;SDS011;2549;52.128;21.068;2024-02-23T13:49:07;5.73;;;5.03;;
5060;SDS011;2549;52.128;21.068;2024-02-23T13:51:36;6.80;;;4.63;;
5060;SDS011;2549;52.128;21.068;2024-02-23T13:54:03;7.00;;;4.53;;
5060;SDS011;2549;52.128;21.068;2024-02-23T13:56:30;11.70;;;5.20;;
5060;SDS011;2549;52.128;21.068;2024-02-23T13:58:57;5.20;;;4.70;;
5060;SDS011;2549;52.128;21.068;2024-02-23T14:01:24;6.60;;;4.93;;
5060;SDS011;2549;52.128;21.068;2024-02-23T14:03:51;9.20;;;5.57;;
5060;SDS011;2549;52.128;21.068;2024-02-23T14:06:18;6.90;;;5.13;;
5060;SDS011;2549;52.128;21.068;2024-02-23T14:08:45;8.97;;;5.50;;
5060;SDS011;2549;52.128;21.068;2024-02-23T14:11:14;5.10;;;4.57;;
5060;SDS011;2549;52.128;21.068;2024-02-23T14:13:41;6.50;;;5.47;;
5060;SDS011;2549;52.128;21.068;2024-02-23T14:16:08;8.13;;;5.80;;
5060;SDS011;2549;52.128;21.068;2024-02-23T14:18:35;6.03;;;5.17;;
5060;SDS011;2549;52.128;21.068;2024-02-23T14:21:04;6.50;;;5.03;;
5060;SDS011;2549;52.128;21.068;2024-02-23T14:23:31;5.77;;;5.17;;
5060;SDS011;2549;52.128;21.068;2024-02-23T14:25:58;7.90;;;5.20;;
5060;SDS011;2549;52.128;21.068;2024-02-23T14:28:25;8.57;;;5.37;;
5060;SDS011;2549;52.128;21.068;2024-02-23T14:30:52;7.37;;;5.70;;
5060;SDS011;2549;52.128;21.068;2024-02-23T14:33:20;7.67;;;5.30;;
5060;SDS011;2549;52.128;21.068;2024-02-23T14:35:47;9.53;;;6.00;;
5060;SDS011;2549;52.128;21.068;2024-02-23T14:38:16;6.90;;;5.47;;
5060;SDS011;2549;52.128;21.068;2024-02-23T14:40:44;12.53;;;5.80;;
5060;SDS011;2549;52.128;21.068;2024-02-23T14:43:11;15.03;;;6.33;;
5060;SDS011;2549;52.128;21.068;2024-02-23T14:45:38;7.70;;;5.80;;
5060;SDS011;2549;52.128;21.068;2024-02-23T14:48:05;7.27;;;5.67;;
5060;SDS011;2549;52.128;21.068;2024-02-23T14:50:32;8.43;;;6.10;;
5060;SDS011;2549;52.128;21.068;2024-02-23T14:52:59;8.17;;;5.97;;
5060;SDS011;2549;52.128;21.068;2024-02-23T14:55:27;9.10;;;6.33;;
5060;SDS011;2549;52.128;21.068;2024-02-23T14:57:54;8.73;;;5.07;;
5060;SDS011;2549;52.128;21.068;2024-02-23T15:00:21;6.50;;;5.60;;
5060;SDS011;2549;52.128;21.068;2024-02-23T15:02:47;8.13;;;6.33;;
5060;SDS011;2549;52.128;21.068;2024-02-23T15:05:15;8.17;;;6.20;;
5060;SDS011;2549;52.128;21.068;2024-02-23T15:07:44;6.50;;;5.50;;